Air Resources Laboratory banner image
Air Resources Laboratory web site National Oceanic and Atmospheric Administration (NOAA)

ky metar


KBWG 231753Z AUTO 00000KT 10SM CLR 28/22 A3012 RMK AO2 SLP193 T02780217 10283
 20200 58004=
KCVG 231752Z VRB04KT 10SM FEW037 FEW250 26/14 A3016 RMK AO2 SLP203 T02560144
 10256 20183 50003=
KEKX 231755Z AUTO 01004KT 10SM SCT040 27/18 A3013 RMK AO2 T02740180 10277 20195=
KFFT 231753Z AUTO 33007KT 10SM OVC040 26/16 A3013 RMK AO2 SLP195 T02610161
 10278 20194 50000=
KFTK 231756Z AUTO 00000KT 10SM FEW042 26/17 A3013 RMK AO2 SLP200 T02620170
 10272 20201 58002=
KHOP 231756Z AUTO 03007KT 10SM SCT050 SCT180 29/18 A3011 RMK AO2 SLP193
 T02850183 10292 20199 58003=
KJKL 231753Z AUTO 00000KT 10SM SCT038 SCT050 BKN065 27/18 A3014 RMK AO2 SLP193
 T02670183 10267 20189 58004=
KLEX 231754Z 00000KT 10SM FEW039 FEW049 27/17 A3014 RMK AO2 SLP198 T02720172
 10278 20206 50002 $=
KLOU 231753Z 10SM SCT041 28/18 A3013 RMK AO2 SLP198 T02780183 10283 20206 58001=
KLOZ 231753Z AUTO VRB03KT 10SM BKN031 BKN039 27/19 A3014 RMK AO2 SLP193
 T02670189 10267 20178 58007=
KOWB 231756Z 02005KT 10SM CLR 28/18 A3013 RMK AO2 SLP207 T02780183 10283 20206
 58002=
KPAH 231753Z 05004KT 10SM CLR 30/18 A3011 RMK AO2 SLP191 T03000183 10306 20217
 58005=
KSDF 231756Z 33006KT 10SM FEW050 SCT250 29/17 A3012 RMK AO2 SLP194 T02890167
 10289 20211 58003=
KSME 231755Z AUTO 10SM SCT025 SCT050 26/18 A3014 RMK AO2=